Time;durP1;ratioP1;P1;durP2;ratioP2;P2;SDS_P1;SDS_P2;PMS_P1;PMS_P2;Temp;Humidity;BMP_temperature;BMP_pressure;BME280_temperature;BME280_humidity;BME280_pressure;Samples;Min_cycle;Max_cycle;Signal;HPM_P1;HPM_P2
2022/02/04 00:09:16;;;;;;;47.28;20.73;;;;;;;;;;5012280;28;20098;-67
2022/02/04 00:23:27;;;;;;;54.75;23.33;;;;;;;;;;5034144;28;20026;-69
2022/02/04 00:28:07;;;;;;;52.35;24.80;;;;;;;;;;5034015;28;20042;-68
2022/02/04 00:30:39;;;;;;;51.10;24.17;;;;;;;;;;5032699;28;20470;-68
2022/02/04 00:33:07;;;;;;;50.75;23.80;;;;;;;;;;5032631;28;20504;-68
2022/02/04 00:41:09;;;;;;;58.53;26.13;;;;;;;;;;5028491;28;20470;-69
2022/02/04 00:43:37;;;;;;;63.03;27.02;;;;;;;;;;5033820;28;20033;-69
2022/02/04 00:46:13;;;;;;;60.00;28.02;;;;;;;;;;5031859;28;20091;-70
2022/02/04 00:49:17;;;;;;;61.42;26.95;;;;;;;;;;5032689;28;20386;-70
2022/02/04 01:26:21;;;;;;;65.30;25.05;;;;;;;;;;5032995;28;20086;-66
2022/02/04 01:28:49;;;;;;;62.28;25.23;;;;;;;;;;5033107;28;20120;-65
2022/02/04 01:31:18;;;;;;;57.50;25.33;;;;;;;;;;5033091;28;20052;-66
2022/02/04 01:33:45;;;;;;;68.75;27.88;;;;;;;;;;5033017;28;20021;-66
2022/02/04 01:36:11;;;;;;;61.30;27.52;;;;;;;;;;5033097;28;20108;-67
2022/02/04 01:38:37;;;;;;;68.60;27.70;;;;;;;;;;5031504;28;20163;-64
2022/02/04 01:41:04;;;;;;;52.75;23.08;;;;;;;;;;5031617;28;20068;-67
2022/02/04 01:43:30;;;;;;;48.13;22.95;;;;;;;;;;5031707;28;20026;-65
2022/02/04 01:46:02;;;;;;;54.30;23.85;;;;;;;;;;5032404;28;20410;-66
2022/02/04 01:48:28;;;;;;;57.67;23.63;;;;;;;;;;5032895;28;20026;-66
2022/02/04 01:50:54;;;;;;;58.72;25.92;;;;;;;;;;5032876;28;20037;-66
2022/02/04 01:53:28;;;;;;;58.42;25.83;;;;;;;;;;5032769;28;20025;-66
2022/02/04 01:55:54;;;;;;;59.03;25.73;;;;;;;;;;5032680;28;20378;-65
2022/02/04 01:58:20;;;;;;;59.13;25.55;;;;;;;;;;5034218;28;20032;-65
2022/02/04 02:00:47;;;;;;;58.50;24.88;;;;;;;;;;5032977;28;20077;-64
2022/02/04 02:03:13;;;;;;;62.80;25.08;;;;;;;;;;5034184;28;20033;-64
2022/02/04 02:05:39;;;;;;;56.15;25.27;;;;;;;;;;5032564;28;20461;-64
2022/02/04 02:08:09;;;;;;;56.25;25.00;;;;;;;;;;5033706;28;20036;-66
2022/02/04 02:10:36;;;;;;;73.45;32.92;;;;;;;;;;5034036;28;20035;-66
2022/02/04 02:36:03;;;;;;;45.55;23.65;;;;;;;;;;5036257;28;20036;-66
2022/02/04 02:44:28;;;;;;;55.85;25.60;;;;;;;;;;5036061;28;20130;-66
2022/02/04 02:52:15;;;;;;;45.40;22.50;;;;;;;;;;5024434;28;20482;-65
2022/02/04 02:57:49;;;;;;;58.97;27.27;;;;;;;;;;5035845;28;20199;-68
2022/02/04 03:02:39;;;;;;;56.67;22.08;;;;;;;;;;5035664;28;20424;-67
2022/02/04 03:05:06;;;;;;;39.63;19.08;;;;;;;;;;5035689;28;20044;-67
2022/02/04 03:07:32;;;;;;;43.50;19.92;;;;;;;;;;5034567;28;20112;-68
2022/02/04 03:09:58;;;;;;;43.45;19.73;;;;;;;;;;5035553;28;20036;-68
2022/02/04 03:12:24;;;;;;;39.60;17.17;;;;;;;;;;5035492;28;20055;-67
2022/02/04 03:14:53;;;;;;;43.22;19.45;;;;;;;;;;5035450;28;20029;-67
2022/02/04 03:17:19;;;;;;;38.40;16.63;;;;;;;;;;5035397;28;20108;-68
2022/02/04 03:19:49;;;;;;;34.05;16.77;;;;;;;;;;5035297;28;20116;-66
2022/02/04 03:22:16;;;;;;;45.25;19.83;;;;;;;;;;5035373;28;20025;-69
2022/02/04 03:24:48;;;;;;;43.33;18.40;;;;;;;;;;5035285;28;20355;-67
2022/02/04 03:27:15;;;;;;;40.00;18.33;;;;;;;;;;5035277;28;20136;-67
2022/02/04 03:32:26;;;;;;;39.72;17.80;;;;;;;;;;5034709;28;20136;-69
2022/02/04 03:34:52;;;;;;;39.30;16.73;;;;;;;;;;5034092;28;20421;-69
2022/02/04 03:37:18;;;;;;;32.33;15.80;;;;;;;;;;5034873;28;20057;-70
2022/02/04 03:39:45;;;;;;;42.85;17.90;;;;;;;;;;5034938;28;20072;-67
2022/02/04 03:42:11;;;;;;;46.63;21.67;;;;;;;;;;5034953;28;20382;-70
2022/02/04 03:44:37;;;;;;;46.80;20.23;;;;;;;;;;5034895;28;20030;-69
2022/02/04 03:47:04;;;;;;;56.08;23.38;;;;;;;;;;5033118;28;20049;-70
2022/02/04 03:49:30;;;;;;;42.53;21.17;;;;;;;;;;5033546;28;20049;-67
2022/02/04 03:51:56;;;;;;;51.00;20.23;;;;;;;;;;5033221;28;20076;-69
2022/02/04 03:54:22;;;;;;;43.65;15.63;;;;;;;;;;5034710;28;20436;-69
2022/02/04 03:56:49;;;;;;;34.03;16.48;;;;;;;;;;5033359;28;20025;-68
2022/02/04 03:59:15;;;;;;;44.33;17.30;;;;;;;;;;5033263;28;20029;-67
2022/02/04 04:01:42;;;;;;;45.58;18.17;;;;;;;;;;5034866;28;20104;-64
2022/02/04 04:04:08;;;;;;;40.78;17.65;;;;;;;;;;5034516;28;20025;-66
2022/02/04 04:06:34;;;;;;;68.80;19.02;;;;;;;;;;5034420;28;20100;-67
2022/02/04 04:09:00;;;;;;;51.28;19.35;;;;;;;;;;5034432;28;20466;-66
2022/02/04 04:11:26;;;;;;;51.28;18.80;;;;;;;;;;5033127;28;20037;-67
2022/02/04 04:13:53;;;;;;;43.45;19.30;;;;;;;;;;5034357;28;20025;-65
2022/02/04 04:16:20;;;;;;;44.30;17.83;;;;;;;;;;5032951;28;20034;-65
2022/02/04 04:18:46;;;;;;;39.00;17.25;;;;;;;;;;5034266;28;20026;-66
2022/02/04 04:21:12;;;;;;;46.58;18.52;;;;;;;;;;5032828;28;20061;-65
2022/02/04 04:23:39;;;;;;;40.25;18.45;;;;;;;;;;5032915;28;20116;-66
2022/02/04 04:26:05;;;;;;;54.10;22.67;;;;;;;;;;5034080;28;20033;-68
2022/02/04 04:28:31;;;;;;;57.85;24.42;;;;;;;;;;5033816;28;20500;-67
2022/02/04 04:30:57;;;;;;;34.75;15.77;;;;;;;;;;5032715;28;20033;-65
2022/02/04 04:33:23;;;;;;;32.00;16.33;;;;;;;;;;5033969;28;20450;-66
2022/02/04 04:35:49;;;;;;;35.95;16.73;;;;;;;;;;5034182;28;20048;-67
2022/02/04 05:29:50;;;;;;;58.72;25.58;;;;;;;;;;5032874;28;20040;-69
2022/02/04 05:32:17;;;;;;;56.85;25.08;;;;;;;;;;5031804;28;20079;-65
2022/02/04 05:34:45;;;;;;;51.08;20.92;;;;;;;;;;5033019;28;20026;-68
2022/02/04 05:37:14;;;;;;;41.97;20.95;;;;;;;;;;5033071;28;20121;-68
2022/02/04 05:39:52;;;;;;;43.63;21.30;;;;;;;;;;5032966;28;20163;-67
2022/02/04 05:42:23;;;;;;;48.60;20.58;;;;;;;;;;5033063;28;20029;-67
2022/02/04 05:44:57;;;;;;;53.88;23.35;;;;;;;;;;5033036;28;20458;-68
2022/02/04 05:47:23;;;;;;;54.78;23.30;;;;;;;;;;5032991;28;20922;-69
2022/02/04 05:50:08;;;;;;;48.80;22.65;;;;;;;;;;5032935;28;20033;-67
2022/02/04 05:52:55;;;;;;;52.28;24.00;;;;;;;;;;5032856;28;20025;-70
2022/02/04 06:22:21;;;;;;;100.90;36.67;;;;;;;;;;5014340;28;20418;-69
2022/02/04 06:24:48;;;;;;;78.47;30.00;;;;;;;;;;4997676;28;20460;-66
2022/02/04 06:27:14;;;;;;;72.75;29.85;;;;;;;;;;5014093;28;20104;-66
2022/02/04 06:29:41;;;;;;;81.90;30.33;;;;;;;;;;5014095;28;20088;-67
2022/02/04 06:32:08;;;;;;;77.93;30.02;;;;;;;;;;4997526;28;20169;-69
2022/02/04 06:34:34;;;;;;;89.60;29.88;;;;;;;;;;5014032;28;20054;-65
2022/02/04 06:37:00;;;;;;;69.03;26.23;;;;;;;;;;5014161;28;20037;-64
2022/02/04 06:39:26;;;;;;;78.82;31.73;;;;;;;;;;4997305;28;20463;-65
2022/02/04 06:41:52;;;;;;;97.78;38.35;;;;;;;;;;4999113;28;20065;-64
2022/02/04 06:44:19;;;;;;;77.40;32.88;;;;;;;;;;5006568;28;20038;-67
2022/02/04 06:46:45;;;;;;;61.45;30.02;;;;;;;;;;5013165;28;20056;-67
2022/02/04 06:49:11;;;;;;;66.53;29.42;;;;;;;;;;5021211;28;20029;-66
2022/02/04 06:51:37;;;;;;;74.25;30.73;;;;;;;;;;5035729;28;20057;-66
2022/02/04 06:54:03;;;;;;;79.72;31.13;;;;;;;;;;5035949;28;20102;-64
2022/02/04 06:56:33;;;;;;;75.35;28.98;;;;;;;;;;5033949;28;20029;-63
2022/02/04 06:59:00;;;;;;;59.40;26.85;;;;;;;;;;5035775;28;20083;-65
2022/02/04 07:01:31;;;;;;;50.97;23.73;;;;;;;;;;5034219;28;20385;-63
2022/02/04 07:03:57;;;;;;;48.85;21.63;;;;;;;;;;5034979;28;20466;-63
2022/02/04 07:06:23;;;;;;;48.83;20.77;;;;;;;;;;5035445;28;20513;-65
2022/02/04 07:22:13;;;;;;;40.03;18.10;;;;;;;;;;5035052;28;20041;-63
2022/02/04 07:24:39;;;;;;;41.08;17.83;;;;;;;;;;5033936;28;20409;-68
2022/02/04 07:27:05;;;;;;;43.25;16.75;;;;;;;;;;5035176;28;20202;-65
2022/02/04 07:29:32;;;;;;;39.75;18.08;;;;;;;;;;5035215;28;20386;-63
2022/02/04 07:32:02;;;;;;;43.80;18.52;;;;;;;;;;5035238;28;20014;-66
2022/02/04 07:42:30;;;;;;;38.05;17.17;;;;;;;;;;5034687;28;20076;-66
2022/02/04 07:44:57;;;;;;;28.35;14.50;;;;;;;;;;5034876;28;20071;-64
2022/02/04 07:47:23;;;;;;;34.08;14.73;;;;;;;;;;5034780;28;20053;-66
2022/02/04 07:49:52;;;;;;;31.90;14.55;;;;;;;;;;5033373;28;20035;-66
2022/02/04 07:52:18;;;;;;;36.05;15.25;;;;;;;;;;5034748;28;20048;-65
2022/02/04 07:54:45;;;;;;;30.90;14.35;;;;;;;;;;5034670;28;20462;-66
2022/02/04 07:57:12;;;;;;;31.27;14.65;;;;;;;;;;5034599;28;20033;-64
2022/02/04 07:59:38;;;;;;;37.17;16.77;;;;;;;;;;5034333;28;20065;-66
2022/02/04 08:02:04;;;;;;;37.13;18.38;;;;;;;;;;5034319;28;20076;-67
2022/02/04 08:04:33;;;;;;;32.70;17.05;;;;;;;;;;5034323;28;20021;-66
2022/02/04 08:07:04;;;;;;;32.35;16.10;;;;;;;;;;5034430;28;20034;-62
2022/02/04 08:10:24;;;;;;;35.72;15.50;;;;;;;;;;5033001;28;20025;-62
2022/02/04 08:28:18;;;;;;;32.97;15.40;;;;;;;;;;5014324;28;20037;-61
2022/02/04 08:30:51;;;;;;;42.80;16.77;;;;;;;;;;5013721;28;20045;-61
2022/02/04 08:46:38;;;;;;;38.67;20.67;;;;;;;;;;5013753;28;20419;-61
2022/02/04 08:52:38;;;;;;;38.33;19.75;;;;;;;;;;5032553;28;20434;-62
2022/02/04 09:00:15;;;;;;;42.30;18.15;;;;;;;;;;5033188;28;20128;-62
2022/02/04 09:02:43;;;;;;;40.55;19.52;;;;;;;;;;5033542;28;20026;-63
2022/02/04 09:05:14;;;;;;;43.63;19.90;;;;;;;;;;5031962;28;20179;-62
2022/02/04 09:10:42;;;;;;;44.85;18.50;;;;;;;;;;4991318;28;20389;-61
2022/02/04 09:23:21;;;;;;;42.03;17.30;;;;;;;;;;4971515;28;20042;-61
2022/02/04 09:25:48;;;;;;;38.90;18.33;;;;;;;;;;4971686;28;20043;-61
2022/02/04 09:28:14;;;;;;;36.88;15.18;;;;;;;;;;4971819;28;20478;-61
2022/02/04 09:30:40;;;;;;;35.67;18.25;;;;;;;;;;4971744;28;20482;-62
2022/02/04 09:33:06;;;;;;;28.23;15.07;;;;;;;;;;4971908;28;20109;-62
2022/02/04 09:35:33;;;;;;;42.25;16.23;;;;;;;;;;4955403;28;20476;-62
2022/02/04 09:37:59;;;;;;;39.28;15.95;;;;;;;;;;4971537;28;20039;-62
2022/02/04 09:40:25;;;;;;;39.55;17.30;;;;;;;;;;4971540;28;20039;-61
2022/02/04 09:42:52;;;;;;;35.05;15.35;;;;;;;;;;4971317;28;20118;-62
2022/02/04 09:45:20;;;;;;;33.28;14.13;;;;;;;;;;5002994;28;20133;-62
2022/02/04 09:47:47;;;;;;;39.30;17.15;;;;;;;;;;5011342;28;20066;-61
2022/02/04 09:50:17;;;;;;;32.13;14.70;;;;;;;;;;5012924;28;20459;-64
2022/02/04 10:07:16;;;;;;;36.90;16.52;;;;;;;;;;5012869;28;20069;-61
2022/02/04 10:10:15;;;;;;;44.72;19.30;;;;;;;;;;5011694;28;20021;-65
2022/02/04 10:17:41;;;;;;;50.95;20.67;;;;;;;;;;5032442;28;20140;-61
2022/02/04 10:20:08;;;;;;;61.40;24.25;;;;;;;;;;5032428;28;20415;-61
2022/02/04 10:22:35;;;;;;;44.40;23.23;;;;;;;;;;5032347;28;20029;-60
2022/02/04 10:25:09;;;;;;;49.22;22.75;;;;;;;;;;5032034;28;20032;-64
2022/02/04 10:27:36;;;;;;;54.03;25.20;;;;;;;;;;5032346;28;20032;-60
2022/02/04 10:30:02;;;;;;;52.30;25.95;;;;;;;;;;5032296;28;20025;-61
2022/02/04 10:32:31;;;;;;;50.78;26.10;;;;;;;;;;5032333;28;20026;-62
2022/02/04 10:35:02;;;;;;;53.67;27.60;;;;;;;;;;5032278;28;20053;-62
2022/02/04 10:37:31;;;;;;;59.22;27.88;;;;;;;;;;5030727;28;20072;-61
2022/02/04 10:40:13;;;;;;;52.58;29.08;;;;;;;;;;5030882;28;20033;-63
2022/02/04 10:45:37;;;;;;;76.43;34.03;;;;;;;;;;5034911;28;20033;-63
2022/02/04 10:48:32;;;;;;;64.53;31.02;;;;;;;;;;5034036;28;20509;-62
2022/02/04 10:56:15;;;;;;;67.15;29.58;;;;;;;;;;5035695;28;20092;-62
2022/02/04 11:03:46;;;;;;;42.95;21.70;;;;;;;;;;5035410;28;20475;-63
2022/02/04 11:08:58;;;;;;;63.53;28.17;;;;;;;;;;5035487;28;20025;-63
2022/02/04 11:31:05;;;;;;;59.40;28.67;;;13.10;66.60;;;;;;5034834;28;20044;-62
2022/02/04 11:34:25;;;;;;;60.33;27.17;;;13.00;67.70;;;;;;5019530;28;20474;-63
2022/02/04 11:43:43;;;;;;;61.33;28.23;;;13.00;66.30;;;;;;5034943;28;20104;-62
2022/02/04 11:54:30;;;;;;;59.55;28.23;;;12.70;63.60;;;;;;5013895;28;20125;-63
2022/02/04 11:56:56;;;;;;;40.70;20.50;;;12.80;66.40;;;;;;5013367;28;20022;-62
2022/02/04 11:59:35;;;;;;;61.58;27.38;;;13.10;62.90;;;;;;5016647;28;20033;-63
2022/02/04 12:02:23;;;;;;;63.03;29.45;;;13.10;65.50;;;;;;5020168;28;20030;-64
2022/02/04 12:04:49;;;;;;;61.15;29.33;;;13.50;64.90;;;;;;5021259;28;20025;-64
2022/02/04 12:07:33;;;;;;;62.30;29.83;;;;;;;;;;5017943;28;20120;-62
2022/02/04 12:10:01;;;;;;;56.42;27.75;;;;;;;;;;5014384;28;20026;-62
2022/02/04 12:13:08;;;;;;;54.13;26.88;;;14.20;66.50;;;;;;5013983;28;20034;-65
2022/02/04 12:15:56;;;;;;;46.40;23.08;;;17.80;56.50;;;;;;5014047;28;20030;-67
2022/02/04 12:18:45;;;;;;;45.22;22.10;;;;;;;;;;5014252;28;20030;-63
2022/02/04 12:21:34;;;;;;;46.90;23.02;;;;;;;;;;5013819;28;20534;-65
2022/02/04 12:24:00;;;;;;;49.88;25.70;;;;;;;;;;5013669;28;20036;-63
2022/02/04 12:26:33;;;;;;;42.85;21.65;;;;;;;;;;5013949;28;20064;-63
2022/02/04 12:29:03;;;;;;;48.85;21.58;;;;;;;;;;5013947;28;20463;-63
2022/02/04 12:31:32;;;;;;;42.40;21.70;;;;;;;;;;5012701;28;20522;-63
2022/02/04 12:34:00;;;;;;;42.58;21.10;;;;;;;;;;5012107;28;20018;-63
2022/02/04 12:36:29;;;;;;;44.42;21.08;;;17.90;53.10;;;;;;5012239;28;20026;-63
2022/02/04 12:39:00;;;;;;;48.15;20.90;;;13.70;60.30;;;;;;5022470;28;20024;-62
2022/02/04 12:41:33;;;;;;;45.50;16.58;;;;;;;;;;5013376;28;20038;-63
2022/02/04 12:44:01;;;;;;;38.67;17.08;;;;;;;;;;5013719;28;20018;-63
2022/02/04 12:46:28;;;;;;;46.80;18.80;;;;;;;;;;5011567;28;20132;-63
2022/02/04 12:48:56;;;;;;;36.55;15.60;;;;;;;;;;5013848;28;20041;-64
2022/02/04 12:52:06;;;;;;;32.40;15.70;;;;;;;;;;5013361;28;20029;-65
2022/02/04 12:54:40;;;;;;;44.92;19.02;;;;;;;;;;4971587;28;20038;-64
2022/02/04 13:02:49;;;;;;;36.85;17.58;;;13.50;62.80;;;;;;4990780;28;20509;-64
2022/02/04 13:08:14;;;;;;;38.28;18.30;;;13.30;64.30;;;;;;4990430;28;20585;-65
2022/02/04 13:10:40;;;;;;;44.20;19.40;;;13.20;64.30;;;;;;4990835;28;20479;-65
2022/02/04 13:13:10;;;;;;;36.38;17.77;;;13.10;65.10;;;;;;4991213;28;20472;-63
2022/02/04 13:15:39;;;;;;;34.67;17.65;;;13.00;62.80;;;;;;4991177;28;20030;-63
2022/02/04 13:18:14;;;;;;;34.72;16.98;;;13.20;62.20;;;;;;4990934;28;20062;-62
2022/02/04 13:20:46;;;;;;;38.33;18.08;;;13.20;62.00;;;;;;4991209;28;20082;-62
2022/02/04 13:23:17;;;;;;;49.22;18.88;;;13.00;63.50;;;;;;4991114;28;20113;-62
2022/02/04 13:25:45;;;;;;;37.83;18.83;;;12.90;65.90;;;;;;4974788;28;20030;-63
2022/02/04 13:28:16;;;;;;;44.20;20.13;;;12.80;64.40;;;;;;4991400;28;20030;-63
2022/02/04 13:30:59;;;;;;;35.33;18.75;;;12.70;65.70;;;;;;5011993;28;20056;-63
2022/02/04 13:33:26;;;;;;;42.08;18.73;;;12.60;66.60;;;;;;5031728;28;20037;-63
2022/02/04 13:44:34;;;;;;;36.10;14.95;;;12.50;68.70;;;;;;5032633;28;20026;-63
2022/02/04 13:47:23;;;;;;;35.80;15.57;;;12.50;68.30;;;;;;5031076;28;20060;-64
2022/02/04 13:57:56;;;;;;;41.72;20.17;;;12.60;67.60;;;;;;5032641;28;20069;-64
2022/02/04 14:00:30;;;;;;;38.20;16.63;;;12.60;69.30;;;;;;5032814;28;20033;-63
2022/02/04 14:03:13;;;;;;;44.03;19.50;;;12.50;71.10;;;;;;5033056;28;20026;-63
2022/02/04 14:05:49;;;;;;;40.17;19.02;;;12.30;68.50;;;;;;5031213;28;20033;-62
2022/02/04 14:08:20;;;;;;;41.85;19.95;;;;;;;;;;5031365;28;20056;-62
2022/02/04 14:10:50;;;;;;;36.75;17.88;;;;;;;;;;5032620;28;20474;-64
2022/02/04 14:13:21;;;;;;;36.90;15.85;;;12.40;69.40;;;;;;5031233;28;20124;-65
2022/02/04 14:15:52;;;;;;;49.65;16.67;;;12.60;68.60;;;;;;5029456;28;20022;-64
2022/02/04 14:18:18;;;;;;;34.05;14.23;;;12.40;69.30;;;;;;5018579;28;20045;-65
2022/02/04 14:20:44;;;;;;;31.90;14.82;;;12.40;71.00;;;;;;5015097;28;20041;-64
2022/02/04 14:23:11;;;;;;;28.70;15.38;;;12.40;70.40;;;;;;5015178;28;20498;-64
2022/02/04 14:26:08;;;;;;;31.95;14.45;;;12.30;70.30;;;;;;5014437;28;20022;-64
2022/02/04 14:31:14;;;;;;;39.50;17.40;;;12.60;70.00;;;;;;5036143;28;20043;-67
2022/02/04 14:34:39;;;;;;;25.95;14.65;;;12.50;68.60;;;;;;5036266;28;20505;-66
2022/02/04 14:53:20;;;;;;;36.10;16.02;;;12.70;69.70;;;;;;5035571;28;20040;-66
2022/02/04 15:04:11;;;;;;;67.43;27.17;;;13.40;68.30;;;;;;5035572;28;20386;-62
2022/02/04 15:06:36;;;;;;;64.72;27.80;;;12.90;69.50;;;;;;5034633;28;20045;-62
2022/02/04 15:09:13;;;;;;;65.88;27.58;;;12.60;70.90;;;;;;5035826;28;20025;-63
2022/02/04 15:11:42;;;;;;;62.45;26.80;;;12.50;70.00;;;;;;5034285;28;20385;-63
2022/02/04 15:14:10;;;;;;;48.55;24.50;;;12.70;69.10;;;;;;5034192;28;20029;-63
2022/02/04 15:16:38;;;;;;;47.05;22.98;;;13.30;68.80;;;;;;5035470;28;20397;-63
2022/02/04 15:19:05;;;;;;;79.85;35.08;;;;;;;;;;5035370;28;20069;-63
2022/02/04 15:21:32;;;;;;;48.83;23.38;;;;;;;;;;5035354;28;20113;-63
2022/02/04 15:23:59;;;;;;;42.22;21.90;;;;;;;;;;5035323;28;20022;-63
2022/02/04 15:26:28;;;;;;;47.42;22.88;;;13.60;68.30;;;;;;5035368;28;20028;-64
2022/02/04 15:29:01;;;;;;;47.17;21.45;;;13.50;68.10;;;;;;5033719;28;20398;-64
2022/02/04 15:33:55;;;;;;;139.60;58.97;;;;;;;;;;5035072;28;20033;-64
2022/02/04 15:36:30;;;;;;;132.07;62.22;;;12.00;71.00;;;;;;5020891;28;20049;-64
2022/02/04 15:38:57;;;;;;;131.50;60.67;;;;;;;;;;5013984;28;20096;-63
2022/02/04 15:41:25;;;;;;;121.13;57.95;;;;;;;;;;5015109;28;20026;-63
2022/02/04 15:43:55;;;;;;;119.00;55.42;;;;;;;;;;5015071;28;20057;-63
2022/02/04 16:06:44;;;;;;;118.40;58.40;;;;;;;;;;5014545;28;20121;-62
2022/02/04 16:09:10;;;;;;;121.50;57.15;;;;;;;;;;5014553;28;20026;-61
2022/02/04 16:11:57;;;;;;;114.75;53.42;;;;;;;;;;5013125;28;20116;-62
2022/02/04 16:14:32;;;;;;;102.57;44.95;;;;;;;;;;5014504;28;20022;-62
2022/02/04 16:17:08;;;;;;;98.18;46.90;;;;;;;;;;5013047;28;20153;-63
2022/02/04 16:19:42;;;;;;;100.97;47.40;;;;;;;;;;5014395;28;20025;-62
2022/02/04 16:22:42;;;;;;;106.68;49.70;;;;;;;;;;5014499;28;20026;-63
2022/02/04 16:30:04;;;;;;;110.80;54.75;;;;;;;;;;5014192;28;20030;-63
2022/02/04 16:32:30;;;;;;;111.00;52.15;;;;;;;;;;5014247;28;20018;-63
2022/02/04 16:34:57;;;;;;;113.90;52.25;;;;;;;;;;5013882;28;20368;-63
2022/02/04 16:37:29;;;;;;;167.63;53.85;;;;;;;;;;5012968;28;20029;-63
2022/02/04 16:39:59;;;;;;;155.80;53.95;;;;;;;;;;5013858;28;20024;-62
2022/02/04 16:42:27;;;;;;;150.70;54.53;;;;;;;;;;5013856;28;20026;-62
2022/02/04 16:44:53;;;;;;;140.07;55.17;;;;;;;;;;5014005;28;20075;-61
2022/02/04 16:47:19;;;;;;;160.48;62.53;;;;;;;;;;5013634;28;20081;-62
2022/02/04 16:49:46;;;;;;;129.63;51.25;;;;;;;;;;5014227;28;20087;-62
2022/02/04 16:52:12;;;;;;;157.48;67.90;;;;;;;;;;5014092;28;20030;-62
2022/02/04 16:54:39;;;;;;;248.15;111.47;;;;;;;;;;5012544;28;20438;-61
2022/02/04 16:57:05;;;;;;;211.57;88.82;;;;;;;;;;5013891;28;20034;-61
2022/02/04 16:59:32;;;;;;;276.60;123.60;;;;;;;;;;5013506;28;20471;-62
2022/02/04 17:01:58;;;;;;;192.07;88.95;;;;;;;;;;5013620;28;20045;-62
2022/02/04 17:04:24;;;;;;;161.90;58.80;;;;;;;;;;5013906;28;20112;-62
2022/02/04 17:07:04;;;;;;;155.48;65.95;;;;;;;;;;5013800;28;20123;-62
2022/02/04 17:09:36;;;;;;;164.68;71.97;;;;;;;;;;5016765;28;20029;-62
2022/02/04 17:12:08;;;;;;;199.30;85.50;;;;;;;;;;5042535;28;20106;-62
2022/02/04 17:14:35;;;;;;;147.15;63.53;;;;;;;;;;5013567;28;20053;-62
2022/02/04 17:17:01;;;;;;;181.05;68.72;;;;;;;;;;5012200;28;20113;-61
2022/02/04 17:19:33;;;;;;;207.52;88.40;;;;;;;;;;5012055;28;20053;-62
2022/02/04 17:22:03;;;;;;;225.25;100.38;;;;;;;;;;5011528;28;20022;-62
2022/02/04 17:24:29;;;;;;;166.05;65.28;;;;;;;;;;5011995;28;20024;-62
2022/02/04 17:26:55;;;;;;;196.73;82.60;;;;;;;;;;5012533;28;20032;-62
2022/02/04 17:29:21;;;;;;;237.23;106.07;;;;;;;;;;5013298;28;20029;-62
2022/02/04 17:31:48;;;;;;;321.38;143.02;;;;;;;;;;5013089;28;20084;-62
2022/02/04 17:34:16;;;;;;;248.68;90.90;;;;;;;;;;5012941;28;20394;-61
2022/02/04 17:36:43;;;;;;;217.02;87.60;;;;;;;;;;5012959;28;20025;-61
2022/02/04 17:39:16;;;;;;;275.00;107.43;;;;;;;;;;5012984;28;20026;-61
2022/02/04 17:41:43;;;;;;;247.82;105.15;;;;;;;;;;5012166;28;20045;-61
2022/02/04 17:44:10;;;;;;;271.08;111.80;;;;;;;;;;5012624;28;20025;-62
2022/02/04 17:46:36;;;;;;;246.93;95.15;;;;;;;;;;5019684;28;20050;-61
2022/02/04 17:49:27;;;;;;;242.77;95.63;;;;;;;;;;5013070;28;20022;-62
2022/02/04 17:52:07;;;;;;;231.35;93.03;;;;;;;;;;5012894;28;20130;-61
2022/02/04 17:54:48;;;;;;;237.32;98.88;;;;;;;;;;5015021;28;20089;-61
2022/02/04 17:57:19;;;;;;;207.48;92.20;;;;;;;;;;5017214;28;20474;-60
2022/02/04 18:00:05;;;;;;;244.13;108.55;;;;;;;;;;5016440;28;20470;-60
2022/02/04 18:02:53;;;;;;;253.45;102.90;;;;;;;;;;5016870;28;20026;-61
2022/02/04 18:07:48;;;;;;;427.20;108.35;;;;;;;;;;5016976;28;20116;-60
2022/02/04 18:10:15;;;;;;;346.27;112.82;;;;;;;;;;5015323;28;20402;-61
2022/02/04 18:12:41;;;;;;;346.90;110.78;;;;;;;;;;5015242;28;20164;-61
2022/02/04 18:15:07;;;;;;;328.98;124.00;;;;;;;;;;5016056;28;20022;-60
2022/02/04 18:17:33;;;;;;;361.73;106.43;;;;;;;;;;5016839;28;20129;-61
2022/02/04 18:20:01;;;;;;;280.83;101.63;;;;;;;;;;5016631;28;20151;-61
2022/02/04 18:22:27;;;;;;;281.45;105.25;;;;;;;;;;5015447;28;20026;-61
2022/02/04 18:24:54;;;;;;;290.33;113.70;;;;;;;;;;5016321;28;20367;-60
2022/02/04 18:27:20;;;;;;;270.83;111.25;;;;;;;;;;5015366;28;20419;-61
2022/02/04 18:29:52;;;;;;;310.23;135.48;;;;;;;;;;5018698;28;20029;-61
2022/02/04 18:32:20;;;;;;;292.83;129.70;;;;;;;;;;5031304;28;20025;-60
2022/02/04 18:34:46;;;;;;;314.35;131.07;;;;;;;;;;5033768;28;20030;-59
2022/02/04 18:37:12;;;;;;;291.02;121.68;;;;;;;;;;5016341;28;20052;-63
2022/02/04 18:44:32;;;;;;;314.50;121.05;;;;;;;;;;5016097;28;20065;-61
2022/02/04 18:47:24;;;;;;;325.40;131.73;;;;;;;;;;5015755;28;20050;-64
2022/02/04 18:49:57;;;;;;;291.80;122.45;;;;;;;;;;5016138;28;20037;-61
2022/02/04 18:52:39;;;;;;;313.23;137.65;;;;;;;;;;5016383;28;20077;-60
2022/02/04 18:55:39;;;;;;;329.95;146.75;;;;;;;;;;5016070;28;20025;-59
2022/02/04 18:57:52;;;;;;;457.48;228.30;;;;;;;;;;5015616;28;20494;-60
2022/02/04 19:00:19;;;;;;;395.10;185.10;;;;;;;;;;5015890;28;20037;-60
2022/02/04 19:02:50;;;;;;;401.00;175.75;;;;;;;;;;5015743;28;20096;-62
2022/02/04 19:05:44;;;;;;;404.65;183.25;;;;;;;;;;5015398;28;20030;-60
2022/02/04 19:08:10;;;;;;;591.30;314.13;;;;;;;;;;5015051;28;20788;-60
2022/02/04 19:10:38;;;;;;;622.85;318.45;;;;;;;;;;5028691;28;20104;-60
2022/02/04 19:13:18;;;;;;;624.60;331.55;;;;;;;;;;5035105;28;20378;-62
2022/02/04 19:18:18;;;;;;;641.10;343.10;;;;;;;;;;5055175;28;20029;-60
2022/02/04 19:21:00;;;;;;;618.72;339.27;;;;;;;;;;5054980;28;20037;-60
2022/02/04 19:23:27;;;;;;;610.88;330.63;;;;;;;;;;5055202;28;20104;-61
2022/02/04 19:26:00;;;;;;;618.88;336.15;;;;;;;;;;5053638;28;20029;-60
2022/02/04 19:28:28;;;;;;;637.22;359.83;;;;;;;;;;5055053;28;20091;-63
2022/02/04 19:30:57;;;;;;;692.97;381.42;;;;;;;;;;5053308;28;20536;-61
2022/02/04 19:33:24;;;;;;;640.75;360.55;;;;;;;;;;5054790;28;20108;-60
2022/02/04 19:35:51;;;;;;;595.95;328.55;;;;;;;;;;5054582;28;20061;-60
2022/02/04 19:38:17;;;;;;;548.50;300.95;;;;;;;;;;5054798;28;20021;-61
2022/02/04 19:40:45;;;;;;;575.42;311.55;;;;;;;;;;5053187;28;20025;-61
2022/02/04 19:43:14;;;;;;;536.45;287.45;;;;;;;;;;5054647;28;20480;-61
2022/02/04 19:45:56;;;;;;;526.50;282.92;;;;;;;;;;5054511;28;20056;-60
2022/02/04 19:48:35;;;;;;;457.63;231.88;;;;;;;;;;5054490;28;20129;-62
2022/02/04 19:51:22;;;;;;;484.05;244.93;;;;;;;;;;5054251;28;20039;-61
2022/02/04 20:23:48;;;;;;;601.08;328.35;;;;;;;;;;5053862;28;20120;-60
2022/02/04 20:26:14;;;;;;;556.97;304.15;;;;;;;;;;5054046;28;20112;-60
2022/02/04 20:28:40;;;;;;;507.80;273.38;;;;;;;;;;5053943;28;20569;-60
2022/02/04 20:31:07;;;;;;;530.45;284.45;;;;;;;;;;5052630;28;20025;-61
2022/02/04 20:33:33;;;;;;;513.63;267.08;;;;;;;;;;5025195;28;20101;-61
2022/02/04 20:36:00;;;;;;;485.63;243.60;;;;;;;;;;5014034;28;20108;-61
2022/02/04 20:38:33;;;;;;;462.58;239.95;;;;;;;;;;5014100;28;20018;-64
2022/02/04 20:41:08;;;;;;;468.08;243.05;;;;;;;;;;5013975;28;20084;-65
2022/02/04 20:43:35;;;;;;;443.08;230.10;;;;;;;;;;5014042;28;20038;-65
2022/02/04 20:46:03;;;;;;;465.30;237.13;;;;;;;;;;5013757;28;20026;-61
2022/02/04 20:48:36;;;;;;;476.77;239.98;;;;;;;;;;5013952;28;20022;-64
2022/02/04 20:51:03;;;;;;;499.08;254.90;;;;;;;;;;5013916;28;20112;-61
2022/02/04 20:53:30;;;;;;;528.42;279.17;;;;;;;;;;5013991;28;20367;-61
2022/02/04 20:55:56;;;;;;;561.10;296.40;;;;;;;;;;5013807;28;20103;-61
2022/02/04 20:58:26;;;;;;;518.42;271.20;;;;;;;;;;5013885;28;20033;-64
2022/02/04 21:00:53;;;;;;;501.80;270.55;;;;;;;;;;5013627;28;20038;-60
2022/02/04 21:03:20;;;;;;;514.50;270.67;;;;;;;;;;5013749;28;20112;-65
2022/02/04 21:06:03;;;;;;;491.58;268.70;;;;;;;;;;5012325;28;20111;-61
2022/02/04 21:14:01;;;;;;;537.72;288.80;;;;;;;;;;5013366;28;20095;-66
2022/02/04 21:16:30;;;;;;;538.60;288.60;;;;;;;;;;5012154;28;20030;-61
2022/02/04 21:18:56;;;;;;;539.40;291.92;;;;;;;;;;5013361;28;20034;-61
2022/02/04 21:21:23;;;;;;;532.13;286.70;;;;;;;;;;5014433;28;20164;-61
2022/02/04 21:23:50;;;;;;;534.13;289.08;;;;;;;;;;5019843;28;20501;-61
2022/02/04 21:26:16;;;;;;;538.08;282.58;;;;;;;;;;5018897;28;20034;-61
2022/02/04 21:28:45;;;;;;;533.15;280.83;;;;;;;;;;5032893;28;20041;-61
2022/02/04 21:31:13;;;;;;;506.10;268.17;;;;;;;;;;5031594;28;20068;-63
2022/02/04 21:33:55;;;;;;;514.97;272.23;;;;;;;;;;5032703;28;20028;-61
2022/02/04 21:39:06;;;;;;;464.60;235.63;;;;;;;;;;5032473;28;20033;-63
2022/02/04 21:41:32;;;;;;;477.38;238.85;;;;;;;;;;5032583;28;20044;-65
2022/02/04 21:43:58;;;;;;;459.95;229.75;;;;;;;;;;5032774;28;20025;-63